SAT101 LPPD-LPAZ
Flight info
| Callsign | SAT101 |
|---|---|
| Flight time | 0h 14m |
| Altitude | 7000 |
| Route | VMG |
| Aircraft | DH8D/M-SDE2E3FGRY/H |
Departure
| Time | 2026-05-06 05:27 |
|---|---|
| Airport | João Paulo II Airport (LPPD) |
Arrival
| Time | 2026-05-06 05:41 |
|---|---|
| Airport | Santa Maria Airport (LPAZ) |
| Time | Latitude | Longitude | Altitude | Speed | Heading |
|---|---|---|---|---|---|
| 2026-05-06 05:02 | 37.74322 | -25.69640 | 231 ft | 0 kts | 292° |
| 2026-05-06 05:21 | 37.74323 | -25.69643 | 231 ft | 0 kts | 294° |
| 2026-05-06 05:21 | 37.74323 | -25.69663 | 232 ft | 10 kts | 257° |
| 2026-05-06 05:21 | 37.74240 | -25.69743 | 229 ft | 18 kts | 201° |
| 2026-05-06 05:22 | 37.74256 | -25.69952 | 235 ft | 35 kts | 292° |
| 2026-05-06 05:22 | 37.74375 | -25.70240 | 249 ft | 32 kts | 314° |
| 2026-05-06 05:22 | 37.74515 | -25.70387 | 260 ft | 21 kts | 321° |
| 2026-05-06 05:22 | 37.74621 | -25.70552 | 267 ft | 23 kts | 291° |
| 2026-05-06 05:23 | 37.74673 | -25.70717 | 271 ft | 16 kts | 291° |
| 2026-05-06 05:23 | 37.74710 | -25.70834 | 274 ft | 14 kts | 292° |
| 2026-05-06 05:23 | 37.74743 | -25.70939 | 275 ft | 12 kts | 292° |
| 2026-05-06 05:24 | 37.74727 | -25.71017 | 274 ft | 11 kts | 202° |
| 2026-05-06 05:24 | 37.74631 | -25.71022 | 268 ft | 15 kts | 172° |
| 2026-05-06 05:25 | 37.74572 | -25.70956 | 266 ft | 0 kts | 112° |
| 2026-05-06 05:26 | 37.74541 | -25.70862 | 265 ft | 48 kts | 111° |
| 2026-05-06 05:26 | 37.74297 | -25.70080 | 242 ft | 135 kts | 111° |
| 2026-05-06 05:26 | 37.73888 | -25.68907 | 618 ft | 154 kts | 113° |
| 2026-05-06 05:27 | 37.73285 | -25.67711 | 1158 ft | 173 kts | 129° |
| 2026-05-06 05:27 | 37.72334 | -25.66742 | 1808 ft | 182 kts | 147° |
| 2026-05-06 05:27 | 37.71230 | -25.65991 | 2474 ft | 183 kts | 148° |
| 2026-05-06 05:27 | 37.70120 | -25.65180 | 3160 ft | 184 kts | 147° |
| 2026-05-06 05:28 | 37.69017 | -25.64363 | 3837 ft | 186 kts | 147° |
| 2026-05-06 05:28 | 37.67860 | -25.63499 | 4164 ft | 210 kts | 147° |
| 2026-05-06 05:28 | 37.66572 | -25.62527 | 4714 ft | 217 kts | 147° |
| 2026-05-06 05:28 | 37.65255 | -25.61533 | 5301 ft | 223 kts | 147° |
| 2026-05-06 05:29 | 37.63915 | -25.60519 | 5926 ft | 227 kts | 147° |
| 2026-05-06 05:29 | 37.62552 | -25.59487 | 6524 ft | 233 kts | 147° |
| 2026-05-06 05:29 | 37.61097 | -25.58385 | 6814 ft | 252 kts | 147° |
| 2026-05-06 05:29 | 37.59531 | -25.57197 | 6909 ft | 266 kts | 147° |
| 2026-05-06 05:30 | 37.57954 | -25.55996 | 6935 ft | 268 kts | 147° |
| 2026-05-06 05:30 | 37.56343 | -25.54769 | 6945 ft | 269 kts | 147° |
| 2026-05-06 05:30 | 37.54745 | -25.53555 | 6946 ft | 271 kts | 147° |
| 2026-05-06 05:30 | 37.53097 | -25.52306 | 6949 ft | 272 kts | 147° |
| 2026-05-06 05:31 | 37.51471 | -25.51075 | 6949 ft | 272 kts | 147° |
| 2026-05-06 05:31 | 37.49851 | -25.49849 | 6951 ft | 274 kts | 147° |
| 2026-05-06 05:31 | 37.48220 | -25.48617 | 6932 ft | 272 kts | 147° |
| 2026-05-06 05:31 | 37.46581 | -25.47376 | 6945 ft | 270 kts | 147° |
| 2026-05-06 05:32 | 37.44973 | -25.46161 | 6944 ft | 269 kts | 147° |
| 2026-05-06 05:32 | 37.43378 | -25.44957 | 6943 ft | 268 kts | 147° |
| 2026-05-06 05:32 | 37.41763 | -25.43738 | 6943 ft | 267 kts | 147° |
| 2026-05-06 05:32 | 37.40175 | -25.42541 | 6942 ft | 266 kts | 147° |
| 2026-05-06 05:33 | 37.38581 | -25.41340 | 6941 ft | 265 kts | 147° |
| 2026-05-06 05:33 | 37.36986 | -25.40140 | 6941 ft | 265 kts | 147° |
| 2026-05-06 05:33 | 37.35408 | -25.38952 | 6943 ft | 264 kts | 147° |
| 2026-05-06 05:33 | 37.33837 | -25.37771 | 6943 ft | 264 kts | 147° |
| 2026-05-06 05:34 | 37.32251 | -25.36580 | 6942 ft | 264 kts | 147° |
| 2026-05-06 05:34 | 37.30664 | -25.35388 | 6940 ft | 264 kts | 147° |
| 2026-05-06 05:34 | 37.29095 | -25.34210 | 6939 ft | 264 kts | 148° |
| 2026-05-06 05:34 | 37.27517 | -25.33026 | 6879 ft | 266 kts | 148° |
| 2026-05-06 05:35 | 37.25925 | -25.31831 | 6705 ft | 267 kts | 147° |
| 2026-05-06 05:35 | 37.24311 | -25.30618 | 6348 ft | 269 kts | 147° |
| 2026-05-06 05:35 | 37.22733 | -25.29430 | 5934 ft | 263 kts | 147° |
| 2026-05-06 05:35 | 37.21187 | -25.28267 | 5509 ft | 256 kts | 148° |
| 2026-05-06 05:36 | 37.19668 | -25.27127 | 5085 ft | 250 kts | 147° |
| 2026-05-06 05:36 | 37.18198 | -25.26025 | 4675 ft | 245 kts | 147° |
| 2026-05-06 05:36 | 37.16750 | -25.24940 | 4268 ft | 240 kts | 147° |
| 2026-05-06 05:36 | 37.15329 | -25.23877 | 3867 ft | 235 kts | 147° |
| 2026-05-06 05:37 | 37.13933 | -25.22832 | 3475 ft | 230 kts | 147° |
| 2026-05-06 05:37 | 37.12737 | -25.21573 | 3048 ft | 222 kts | 123° |
| 2026-05-06 05:37 | 37.12210 | -25.19831 | 2614 ft | 214 kts | 97° |
| 2026-05-06 05:37 | 37.11686 | -25.18109 | 2155 ft | 216 kts | 128° |
| 2026-05-06 05:38 | 37.10424 | -25.17325 | 1998 ft | 201 kts | 177° |
| 2026-05-06 05:38 | 37.09193 | -25.17890 | 1980 ft | 182 kts | 218° |
| 2026-05-06 05:38 | 37.08228 | -25.18792 | 1955 ft | 165 kts | 215° |
| 2026-05-06 05:38 | 37.07220 | -25.19170 | 1877 ft | 145 kts | 163° |
| 2026-05-06 05:39 | 37.06269 | -25.18779 | 1764 ft | 147 kts | 173° |
| 2026-05-06 05:39 | 37.05204 | -25.18702 | 1589 ft | 155 kts | 166° |
| 2026-05-06 05:39 | 37.04160 | -25.18404 | 1396 ft | 153 kts | 169° |
| 2026-05-06 05:39 | 37.03106 | -25.18256 | 1239 ft | 149 kts | 173° |
| 2026-05-06 05:40 | 37.02090 | -25.18064 | 1039 ft | 148 kts | 169° |
| 2026-05-06 05:40 | 37.01066 | -25.17848 | 866 ft | 151 kts | 170° |
| 2026-05-06 05:40 | 37.00032 | -25.17645 | 677 ft | 149 kts | 171° |
| 2026-05-06 05:40 | 36.99021 | -25.17436 | 442 ft | 147 kts | 171° |
| 2026-05-06 05:41 | 36.98014 | -25.17232 | 309 ft | 136 kts | 171° |
| 2026-05-06 05:41 | 36.97293 | -25.17088 | 320 ft | 69 kts | 171° |
| 2026-05-06 05:41 | 36.96910 | -25.17014 | 314 ft | 52 kts | 171° |
| 2026-05-06 05:41 | 36.96573 | -25.16948 | 308 ft | 45 kts | 172° |
| 2026-05-06 05:42 | 36.96293 | -25.16892 | 302 ft | 36 kts | 172° |
| 2026-05-06 05:42 | 36.96058 | -25.16846 | 294 ft | 31 kts | 172° |
| 2026-05-06 05:42 | 36.95898 | -25.16728 | 293 ft | 24 kts | 109° |
| 2026-05-06 05:42 | 36.95896 | -25.16642 | 299 ft | 0 kts | 86° |
| 2026-05-06 05:43 | 36.95869 | -25.16604 | 300 ft | 17 kts | 181° |
| 2026-05-06 05:43 | 36.95901 | -25.16754 | 292 ft | 27 kts | 318° |
| 2026-05-06 05:43 | 36.96118 | -25.16857 | 296 ft | 38 kts | 352° |
| 2026-05-06 05:44 | 36.96404 | -25.16913 | 305 ft | 44 kts | 351° |
| 2026-05-06 05:44 | 36.96722 | -25.16976 | 311 ft | 48 kts | 352° |
| 2026-05-06 05:44 | 36.97063 | -25.17044 | 316 ft | 50 kts | 352° |
| 2026-05-06 05:44 | 36.97335 | -25.17089 | 321 ft | 21 kts | 16° |
| 2026-05-06 05:45 | 36.97360 | -25.16956 | 327 ft | 14 kts | 101° |
| 2026-05-06 05:45 | 36.97337 | -25.16801 | 333 ft | 20 kts | 98° |
| 2026-05-06 05:45 | 36.97343 | -25.16663 | 342 ft | 11 kts | 106° |
| 2026-05-06 05:45 | 36.97281 | -25.16633 | 344 ft | 8 kts | 171° |
| 2026-05-06 05:46 | 36.97253 | -25.16596 | 346 ft | 8 kts | 46° |
| 2026-05-06 05:46 | 36.97302 | -25.16586 | 346 ft | 2 kts | 352° |
| 2026-05-06 05:46 | 36.97309 | -25.16587 | 346 ft | 0 kts | 353° |